createdAt,value
2022-12-29T00:00:01.425Z,97991.81
2022-12-29T00:02:28.058Z,97998.53
2022-12-29T00:04:54.725Z,98000.09
2022-12-29T00:07:21.501Z,97983.13
2022-12-29T00:09:48.090Z,98000.75
2022-12-29T00:12:14.841Z,97999.91
2022-12-29T00:15:00.018Z,97992.13
2022-12-29T00:17:26.594Z,97994.75
2022-12-29T00:20:11.642Z,97997.19
2022-12-29T00:22:56.808Z,98002.31
2022-12-29T00:25:42.102Z,97996.50
2022-12-29T00:28:30.419Z,97993.56
2022-12-29T00:31:19.760Z,97989.47
2022-12-29T00:34:05.188Z,97991.31
2022-12-29T00:36:37.434Z,97992.09
2022-12-29T00:39:28.567Z,97972.34
2022-12-29T00:42:14.469Z,97977.03
2022-12-29T00:44:41.568Z,97974.13
2022-12-29T00:47:08.211Z,97972.44
2022-12-29T00:49:34.880Z,97979.66
2022-12-29T00:52:08.006Z,97962.06
2022-12-29T00:54:37.057Z,97962.81
2022-12-29T00:57:05.011Z,97967.19
2022-12-29T00:59:31.650Z,97975.91
2022-12-29T01:01:59.128Z,97977.69
2022-12-29T01:04:26.945Z,97961.00
2022-12-29T01:06:53.884Z,97976.53
2022-12-29T01:09:39.686Z,97965.22
2022-12-29T01:12:07.811Z,97967.63
2022-12-29T01:14:34.935Z,97964.91
2022-12-29T01:17:01.531Z,97960.63
2022-12-29T01:19:28.132Z,97953.59
2022-12-29T01:21:54.781Z,97948.56
2022-12-29T01:24:22.027Z,97959.06
2022-12-29T01:26:49.864Z,97945.63
2022-12-29T01:29:16.717Z,97938.19
2022-12-29T01:31:44.089Z,97940.69
2022-12-29T01:34:10.720Z,97939.16
2022-12-29T01:36:37.294Z,97946.28
2022-12-29T01:39:04.043Z,97931.16
2022-12-29T01:41:30.835Z,97928.88
2022-12-29T01:44:00.326Z,97936.72
2022-12-29T01:46:35.942Z,97931.06
2022-12-29T01:49:08.556Z,97930.66
2022-12-29T01:51:50.171Z,97928.44
2022-12-29T01:54:50.269Z,97930.84
2022-12-29T01:57:22.519Z,97932.31
2022-12-29T01:59:57.168Z,97930.53
2022-12-29T02:02:24.856Z,97942.59
2022-12-29T02:04:54.372Z,97920.22
2022-12-29T02:07:23.759Z,97919.41
2022-12-29T02:09:52.865Z,97939.25
2022-12-29T02:12:21.306Z,97922.25
2022-12-29T02:14:51.593Z,97916.47
2022-12-29T02:17:27.175Z,97906.00
2022-12-29T02:20:11.851Z,97909.56
2022-12-29T02:22:57.095Z,97887.72
2022-12-29T02:25:42.557Z,97887.19
2022-12-29T02:28:56.024Z,97890.25
2022-12-29T02:31:38.111Z,97882.91
2022-12-29T02:34:28.968Z,97871.56
2022-12-29T02:37:06.170Z,97883.53
2022-12-29T02:39:51.208Z,97892.88
2022-12-29T02:42:54.591Z,97880.47
2022-12-29T02:45:41.473Z,97888.78
2022-12-29T02:48:39.217Z,97880.81
2022-12-29T02:51:13.670Z,97885.72
2022-12-29T02:53:59.321Z,97869.47
2022-12-29T02:56:26.501Z,97876.72
2022-12-29T02:58:53.074Z,97876.59
2022-12-29T03:02:05.626Z,97864.84
2022-12-29T03:04:38.218Z,97861.81
2022-12-29T03:07:38.016Z,97868.00
2022-12-29T03:10:17.017Z,97859.50
2022-12-29T03:13:03.181Z,97868.72
2022-12-29T03:15:58.845Z,97874.06
2022-12-29T03:18:43.768Z,97867.06
2022-12-29T03:21:15.677Z,97857.72
2022-12-29T03:23:44.706Z,97859.28
2022-12-29T03:26:14.081Z,97858.47
2022-12-29T03:28:49.210Z,97836.31
2022-12-29T03:31:18.302Z,97864.44
2022-12-29T03:33:46.585Z,97856.56
2022-12-29T03:36:22.674Z,97858.75
2022-12-29T03:38:56.634Z,97853.00
2022-12-29T03:41:29.033Z,97852.16
2022-12-29T03:43:57.861Z,97849.84
2022-12-29T03:46:24.604Z,97847.34
2022-12-29T03:48:51.367Z,97851.00
2022-12-29T03:51:17.941Z,97852.69
2022-12-29T03:53:45.450Z,97849.31
2022-12-29T03:56:12.366Z,97858.03
2022-12-29T03:58:38.941Z,97836.63
2022-12-29T04:01:05.620Z,97827.28
2022-12-29T04:03:32.284Z,97838.09
2022-12-29T04:05:59.015Z,97844.59
2022-12-29T04:08:25.809Z,97820.03
2022-12-29T04:10:52.480Z,97840.38
2022-12-29T04:13:20.166Z,97830.03
2022-12-29T04:15:46.795Z,97835.34
2022-12-29T04:18:14.380Z,97837.25
2022-12-29T04:20:59.735Z,97828.44
2022-12-29T04:23:27.662Z,97835.56
2022-12-29T04:25:54.222Z,97833.88
2022-12-29T04:28:20.895Z,97843.34
2022-12-29T04:30:48.416Z,97846.91
2022-12-29T04:33:16.379Z,97832.22
2022-12-29T04:35:46.072Z,97830.88
2022-12-29T04:38:12.953Z,97836.22
2022-12-29T04:40:40.976Z,97835.91
2022-12-29T04:43:07.959Z,97841.03
2022-12-29T04:45:34.768Z,97842.06
2022-12-29T04:48:01.367Z,97835.06
2022-12-29T04:50:27.971Z,97837.03
2022-12-29T04:52:55.072Z,97837.69
2022-12-29T04:55:21.943Z,97844.28
2022-12-29T04:57:48.505Z,97839.97
2022-12-29T05:00:15.601Z,97836.31
2022-12-29T05:02:42.354Z,97840.84
2022-12-29T05:05:09.212Z,97833.56
2022-12-29T05:07:37.352Z,97844.06
2022-12-29T05:10:04.509Z,97832.75
2022-12-29T05:12:35.488Z,97845.44
2022-12-29T05:15:03.751Z,97837.44
2022-12-29T05:17:30.891Z,97827.81
2022-12-29T05:19:57.670Z,97840.63
2022-12-29T05:22:24.519Z,97824.25
2022-12-29T05:24:51.209Z,97827.72
2022-12-29T05:27:17.867Z,97825.09
2022-12-29T05:29:45.821Z,97810.28
2022-12-29T05:32:12.460Z,97816.16
2022-12-29T05:34:39.055Z,97815.44
2022-12-29T05:37:05.861Z,97811.22
2022-12-29T05:39:32.436Z,97814.91
2022-12-29T05:41:59.464Z,97816.06
2022-12-29T05:44:26.074Z,97815.66
2022-12-29T05:46:52.677Z,97813.03
2022-12-29T05:49:19.336Z,97810.50
2022-12-29T05:51:45.938Z,97805.25
2022-12-29T05:54:12.576Z,97810.28
2022-12-29T05:56:39.135Z,97817.75
2022-12-29T05:59:05.747Z,97821.41
2022-12-29T06:01:32.478Z,97821.41
2022-12-29T06:03:59.670Z,97827.91
2022-12-29T06:06:26.443Z,97823.72
2022-12-29T06:08:53.145Z,97835.56
2022-12-29T06:11:19.748Z,97825.72
2022-12-29T06:13:46.324Z,97838.94
2022-12-29T06:16:13.055Z,97824.25
2022-12-29T06:18:39.635Z,97829.81
2022-12-29T06:21:06.613Z,97830.75
2022-12-29T06:23:33.877Z,97824.66
2022-12-29T06:26:00.547Z,97835.28
2022-12-29T06:28:27.235Z,97834.13
2022-12-29T06:30:53.916Z,97828.78
2022-12-29T06:33:20.549Z,97821.41
2022-12-29T06:35:47.322Z,97824.47
2022-12-29T06:38:14.237Z,97815.94
2022-12-29T06:40:42.235Z,97829.06
2022-12-29T06:43:08.874Z,97830.72
2022-12-29T06:45:35.559Z,97840.63
2022-12-29T06:48:02.215Z,97842.50
2022-12-29T06:50:28.833Z,97846.81
2022-12-29T06:52:55.425Z,97831.81
2022-12-29T06:55:22.285Z,97839.47
2022-12-29T06:57:48.847Z,97850.25
2022-12-29T07:00:20.840Z,97845.97
2022-12-29T07:02:51.775Z,97845.63
2022-12-29T07:05:18.455Z,97859.59
2022-12-29T07:07:45.055Z,97859.91
2022-12-29T07:10:13.181Z,97841.84
2022-12-29T07:12:40.988Z,97848.44
2022-12-29T07:15:08.243Z,97847.09
2022-12-29T07:17:34.842Z,97851.59
2022-12-29T07:20:01.482Z,97848.56
2022-12-29T07:22:28.040Z,97854.66
2022-12-29T07:24:54.601Z,97860.97
2022-12-29T07:27:23.584Z,97861.78
2022-12-29T07:29:50.171Z,97879.13
2022-12-29T07:32:16.873Z,97870.06
2022-12-29T07:34:46.254Z,97872.09
2022-12-29T07:37:12.936Z,97872.91
2022-12-29T07:39:39.643Z,97897.72
2022-12-29T07:42:06.599Z,97880.25
2022-12-29T07:44:33.775Z,97888.03
2022-12-29T07:47:00.584Z,97882.88
2022-12-29T07:49:27.247Z,97887.41
2022-12-29T07:51:55.217Z,97888.78
2022-12-29T07:54:23.541Z,97882.28
2022-12-29T07:56:51.144Z,97888.34
2022-12-29T07:59:17.819Z,97898.75
2022-12-29T08:01:44.800Z,97896.53
2022-12-29T08:04:12.651Z,97897.50
2022-12-29T08:06:39.360Z,97913.47
2022-12-29T08:09:14.837Z,97895.09
2022-12-29T08:11:45.346Z,97896.34
2022-12-29T08:14:12.420Z,97896.34
2022-12-29T08:16:39.343Z,97923.31
2022-12-29T08:19:06.121Z,97899.69
2022-12-29T08:21:32.882Z,97911.66
2022-12-29T08:24:00.146Z,97910.94
2022-12-29T08:26:26.996Z,97926.03
2022-12-29T08:28:55.479Z,97936.84
2022-12-29T08:31:22.770Z,97939.47
2022-12-29T08:33:49.769Z,97923.31
2022-12-29T08:36:16.642Z,97915.75
2022-12-29T08:38:43.227Z,97927.94
2022-12-29T08:41:09.892Z,97925.09
2022-12-29T08:43:36.742Z,97926.97
2022-12-29T08:46:03.518Z,97937.69
2022-12-29T08:48:30.070Z,97951.84
2022-12-29T08:50:56.913Z,97960.34
2022-12-29T08:53:23.580Z,97982.59
2022-12-29T08:56:02.440Z,97987.94
2022-12-29T08:58:31.800Z,97996.84
2022-12-29T09:00:58.872Z,97992.84
2022-12-29T09:03:55.061Z,97989.69
2022-12-29T09:06:13.704Z,98003.56
2022-12-29T09:08:40.512Z,97996.72
2022-12-29T09:11:09.457Z,98001.97
2022-12-29T09:13:36.616Z,98000.50
2022-12-29T09:16:04.081Z,98010.53
2022-12-29T09:18:31.044Z,97996.38
2022-12-29T09:21:01.373Z,97996.19
2022-12-29T09:23:28.505Z,98003.41
2022-12-29T09:25:55.244Z,98021.84
2022-12-29T09:28:23.837Z,98014.50
2022-12-29T09:30:52.101Z,98019.75
2022-12-29T09:33:19.689Z,98024.22
2022-12-29T09:35:53.162Z,98029.19
2022-12-29T09:38:20.994Z,98035.47
2022-12-29T09:40:58.353Z,98042.28
2022-12-29T09:43:46.785Z,98036.66
2022-12-29T09:46:23.479Z,98037.28
2022-12-29T09:49:09.258Z,98046.00
2022-12-29T09:51:39.376Z,98037.28
2022-12-29T09:54:42.604Z,98028.19
2022-12-29T09:57:23.675Z,98032.00
2022-12-29T09:59:53.016Z,98037.16
2022-12-29T10:02:28.728Z,98030.09
2022-12-29T10:04:56.005Z,98034.84
2022-12-29T10:07:50.564Z,98035.19
2022-12-29T10:10:39.012Z,98036.88
2022-12-29T10:13:14.265Z,98038.13
2022-12-29T10:16:18.622Z,98034.38
2022-12-29T10:18:49.145Z,98031.56
2022-12-29T10:21:36.108Z,98030.19
2022-12-29T10:24:08.267Z,98032.81
2022-12-29T10:26:41.889Z,98028.50
2022-12-29T10:29:19.584Z,98029.03
2022-12-29T10:31:56.204Z,98030.78
2022-12-29T10:34:35.409Z,98024.94
2022-12-29T10:37:11.093Z,98038.94
2022-12-29T10:39:52.349Z,98044.09
2022-12-29T10:42:21.585Z,98027.41
2022-12-29T10:44:48.388Z,98043.06
2022-12-29T10:47:22.952Z,98039.50
2022-12-29T10:49:50.453Z,98044.97
2022-12-29T10:52:21.052Z,98038.50
2022-12-29T10:55:16.187Z,98046.03
2022-12-29T10:57:46.872Z,98042.28
2022-12-29T11:00:21.467Z,98039.84
2022-12-29T11:02:59.379Z,98021.59
2022-12-29T11:05:55.327Z,98037.34
2022-12-29T11:08:26.731Z,98029.91
2022-12-29T11:11:06.946Z,98032.44
2022-12-29T11:13:58.919Z,98037.50
2022-12-29T11:16:35.243Z,98032.03
2022-12-29T11:19:02.555Z,98043.47
2022-12-29T11:21:45.586Z,98044.00
2022-12-29T11:24:21.489Z,98038.09
2022-12-29T11:26:51.262Z,98045.75
2022-12-29T11:29:23.651Z,98041.28
2022-12-29T11:31:53.708Z,98043.06
2022-12-29T11:34:34.965Z,98042.19
2022-12-29T11:37:07.392Z,98043.06
2022-12-29T11:39:41.973Z,98037.50
2022-12-29T11:42:18.686Z,98038.00
2022-12-29T11:44:50.422Z,98050.41
2022-12-29T11:47:29.952Z,98042.66
2022-12-29T11:50:03.855Z,98041.50
2022-12-29T11:52:36.098Z,98029.94
2022-12-29T11:55:07.736Z,98028.34
2022-12-29T11:57:36.588Z,98028.84
2022-12-29T12:00:27.109Z,98021.59
2022-12-29T12:02:57.752Z,98005.84
2022-12-29T12:05:32.728Z,98007.72
2022-12-29T12:08:21.569Z,98015.63
2022-12-29T12:11:06.879Z,98026.56
2022-12-29T12:13:47.372Z,98021.31
2022-12-29T12:16:18.207Z,98013.75
2022-12-29T12:18:53.276Z,98009.66
2022-12-29T12:21:30.593Z,98026.97
2022-12-29T12:24:37.181Z,98014.19
2022-12-29T12:27:25.003Z,98022.25
2022-12-29T12:30:06.229Z,98023.91
2022-12-29T12:32:44.205Z,98015.00
2022-12-29T12:35:21.566Z,98010.38
2022-12-29T12:38:10.773Z,98008.19
2022-12-29T12:41:07.960Z,98009.00
2022-12-29T12:44:21.182Z,98002.91
2022-12-29T12:47:08.298Z,97998.63
2022-12-29T12:49:43.059Z,98008.38
2022-12-29T12:52:31.635Z,97996.63
2022-12-29T12:55:15.157Z,98006.31
2022-12-29T12:58:23.711Z,98011.44
2022-12-29T13:00:50.154Z,98020.16
2022-12-29T13:03:44.382Z,98020.28
2022-12-29T13:06:27.866Z,98019.00
2022-12-29T13:09:17.856Z,98022.78
2022-12-29T13:11:56.976Z,98023.00
2022-12-29T13:14:37.930Z,98016.69
2022-12-29T13:17:18.141Z,98016.47
2022-12-29T13:20:18.054Z,98028.56
2022-12-29T13:22:56.587Z,98026.25
2022-12-29T13:25:49.788Z,98026.03
2022-12-29T13:29:07.852Z,98029.09
2022-12-29T13:32:24.370Z,98037.59
2022-12-29T13:34:53.734Z,98030.13
2022-12-29T13:37:27.779Z,98036.31
2022-12-29T13:40:02.171Z,98027.84
2022-12-29T13:42:29.709Z,98035.16
2022-12-29T13:45:17.491Z,98027.41
2022-12-29T13:47:53.895Z,98026.47
2022-12-29T13:50:22.941Z,98032.53
2022-12-29T13:52:49.476Z,98039.69
2022-12-29T13:55:21.241Z,98039.06
2022-12-29T13:57:47.910Z,98037.72
2022-12-29T14:00:19.168Z,98039.47
2022-12-29T14:02:46.057Z,98032.84
2022-12-29T14:05:18.886Z,98035.69
2022-12-29T14:07:45.982Z,98030.88
2022-12-29T14:10:48.608Z,98050.25
2022-12-29T14:13:19.632Z,98048.78
2022-12-29T14:15:55.826Z,98043.53
2022-12-29T14:18:25.101Z,98040.03
2022-12-29T14:21:18.621Z,98036.59
2022-12-29T14:23:48.073Z,98041.94
2022-12-29T14:26:35.534Z,98044.97
2022-12-29T14:29:37.182Z,98048.44
2022-12-29T14:32:26.566Z,98063.13
2022-12-29T14:34:58.861Z,98052.94
2022-12-29T14:37:28.903Z,98061.88
2022-12-29T14:40:20.352Z,98055.78
2022-12-29T14:42:48.566Z,98051.06
2022-12-29T14:45:15.018Z,98049.16
2022-12-29T14:47:45.036Z,98058.19
2022-12-29T14:50:11.501Z,98067.22
2022-12-29T14:53:02.480Z,98063.31
2022-12-29T14:55:55.011Z,98076.75
2022-12-29T14:58:42.312Z,98075.22
2022-12-29T15:01:37.697Z,98066.19
2022-12-29T15:04:21.256Z,98077.00
2022-12-29T15:06:50.327Z,98075.69
2022-12-29T15:09:18.520Z,98076.91
2022-12-29T15:11:55.140Z,98083.69
2022-12-29T15:14:30.690Z,98079.59
2022-12-29T15:16:57.347Z,98083.44
2022-12-29T15:19:25.665Z,98095.06
2022-12-29T15:21:54.737Z,98093.94
2022-12-29T15:24:21.452Z,98089.72
2022-12-29T15:26:52.776Z,98101.34
2022-12-29T15:29:39.393Z,98103.22
2022-12-29T15:32:25.576Z,98097.97
2022-12-29T15:34:55.075Z,98093.13
2022-12-29T15:37:38.125Z,98091.91
2022-12-29T15:40:05.575Z,98104.72
2022-12-29T15:42:42.843Z,98105.09
2022-12-29T15:45:13.413Z,98119.34
2022-12-29T15:47:41.309Z,98112.69
2022-12-29T15:50:25.932Z,98116.50
2022-12-29T15:52:52.525Z,98125.50
2022-12-29T15:55:40.934Z,98131.22
2022-12-29T15:58:21.500Z,98133.16
2022-12-29T16:00:58.901Z,98134.28
2022-12-29T16:03:28.500Z,98133.53
2022-12-29T16:06:08.830Z,98125.00
2022-12-29T16:08:38.335Z,98128.91
2022-12-29T16:11:26.312Z,98131.53
2022-12-29T16:13:55.601Z,98131.63
2022-12-29T16:16:24.196Z,98133.88
2022-12-29T16:18:57.287Z,98123.41
2022-12-29T16:21:34.492Z,98130.78
2022-12-29T16:24:10.015Z,98142.38
2022-12-29T16:26:37.175Z,98147.22
2022-12-29T16:29:07.862Z,98150.88
2022-12-29T16:31:36.276Z,98150.94
2022-12-29T16:34:25.273Z,98154.41
2022-12-29T16:37:03.655Z,98160.75
2022-12-29T16:39:34.674Z,98150.19
2022-12-29T16:42:01.987Z,98152.81
2022-12-29T16:44:31.735Z,98147.81
2022-12-29T16:47:03.936Z,98143.63
2022-12-29T16:49:33.131Z,98142.22
2022-12-29T16:51:59.869Z,98147.44
2022-12-29T16:54:34.623Z,98135.09
2022-12-29T16:57:01.485Z,98140.91
2022-12-29T16:59:34.452Z,98129.69
2022-12-29T17:02:06.705Z,98133.50
2022-12-29T17:04:33.588Z,98138.16
2022-12-29T17:07:00.167Z,98136.59
2022-12-29T17:09:28.958Z,98131.44
2022-12-29T17:12:05.321Z,98130.56
2022-12-29T17:14:47.192Z,98138.28
2022-12-29T17:17:21.886Z,98151.94
2022-12-29T17:19:52.542Z,98154.38
2022-12-29T17:22:27.739Z,98144.47
2022-12-29T17:24:56.007Z,98146.94
2022-12-29T17:27:29.501Z,98146.00
2022-12-29T17:29:59.835Z,98151.13
2022-12-29T17:32:27.061Z,98152.06
2022-12-29T17:34:53.633Z,98155.59
2022-12-29T17:37:34.254Z,98145.06
2022-12-29T17:40:01.563Z,98148.50
2022-12-29T17:42:28.257Z,98148.63
2022-12-29T17:44:54.915Z,98154.66
2022-12-29T17:47:21.507Z,98157.97
2022-12-29T17:49:48.037Z,98156.28
2022-12-29T17:52:16.700Z,98154.78
2022-12-29T17:54:51.157Z,98152.31
2022-12-29T17:57:20.374Z,98153.91
2022-12-29T17:59:46.952Z,98152.06
2022-12-29T18:02:23.801Z,98155.53
2022-12-29T18:04:50.495Z,98161.69
2022-12-29T18:07:17.054Z,98161.69
2022-12-29T18:09:43.717Z,98172.44
2022-12-29T18:12:29.194Z,98175.78
2022-12-29T18:14:57.016Z,98171.22
2022-12-29T18:17:23.635Z,98175.34
2022-12-29T18:19:54.717Z,98174.41
2022-12-29T18:22:25.883Z,98177.78
2022-12-29T18:24:52.335Z,98181.16
2022-12-29T18:27:19.737Z,98181.84
2022-12-29T18:29:47.022Z,98182.66
2022-12-29T18:32:14.713Z,98185.28
2022-12-29T18:34:42.661Z,98181.75
2022-12-29T18:37:10.056Z,98183.44
2022-12-29T18:39:39.961Z,98185.94
2022-12-29T18:42:06.951Z,98180.38
2022-12-29T18:44:34.259Z,98187.38
2022-12-29T18:47:01.368Z,98185.88
2022-12-29T18:49:28.184Z,98189.25
2022-12-29T18:51:55.348Z,98188.13
2022-12-29T18:54:33.307Z,98200.09
2022-12-29T18:56:59.934Z,98208.69
2022-12-29T18:59:26.501Z,98196.09
2022-12-29T19:01:53.510Z,98207.63
2022-12-29T19:04:20.246Z,98202.38
2022-12-29T19:06:46.845Z,98209.31
2022-12-29T19:09:14.007Z,98197.50
2022-12-29T19:11:40.854Z,98197.69
2022-12-29T19:14:15.422Z,98198.81
2022-12-29T19:16:42.076Z,98205.00
2022-12-29T19:19:15.087Z,98202.28
2022-12-29T19:21:41.968Z,98208.19
2022-12-29T19:24:08.788Z,98220.53
2022-12-29T19:26:38.080Z,98216.13
2022-12-29T19:29:08.017Z,98217.66
2022-12-29T19:31:34.989Z,98209.19
2022-12-29T19:34:02.930Z,98213.78
2022-12-29T19:36:30.408Z,98211.16
2022-12-29T19:38:57.032Z,98218.28
2022-12-29T19:41:24.530Z,98215.66
2022-12-29T19:43:51.579Z,98213.03
2022-12-29T19:46:19.788Z,98206.38
2022-12-29T19:48:46.501Z,98213.94
2022-12-29T19:51:17.235Z,98219.19
2022-12-29T19:53:45.513Z,98227.41
2022-12-29T19:56:12.789Z,98232.81
2022-12-29T19:58:44.031Z,98229.28
2022-12-29T20:01:20.216Z,98225.16
2022-12-29T20:03:47.648Z,98241.88
2022-12-29T20:06:15.037Z,98244.66
2022-12-29T20:08:41.926Z,98250.09
2022-12-29T20:11:15.367Z,98260.63
2022-12-29T20:13:43.048Z,98261.91
2022-12-29T20:16:12.840Z,98270.84
2022-12-29T20:18:39.585Z,98271.88
2022-12-29T20:21:12.779Z,98277.19
2022-12-29T20:23:40.581Z,98277.38
2022-12-29T20:26:10.935Z,98274.81
2022-12-29T20:28:37.486Z,98277.44
2022-12-29T20:31:14.037Z,98281.00
2022-12-29T20:33:40.695Z,98288.25
2022-12-29T20:36:17.750Z,98296.63
2022-12-29T20:38:45.607Z,98298.31
2022-12-29T20:41:13.735Z,98295.75
2022-12-29T20:43:41.581Z,98301.09
2022-12-29T20:46:08.394Z,98297.56
2022-12-29T20:48:35.338Z,98305.56
2022-12-29T20:51:02.196Z,98315.44
2022-12-29T20:53:31.982Z,98319.75
2022-12-29T20:56:05.329Z,98317.91
2022-12-29T20:58:32.514Z,98307.44
2022-12-29T21:01:07.537Z,98311.97
2022-12-29T21:03:34.687Z,98316.47
2022-12-29T21:06:01.388Z,98317.28
2022-12-29T21:08:30.304Z,98316.22
2022-12-29T21:10:58.728Z,98330.13
2022-12-29T21:13:25.892Z,98331.75
2022-12-29T21:15:57.828Z,98329.13
2022-12-29T21:18:24.714Z,98330.81
2022-12-29T21:21:15.564Z,98337.81
2022-12-29T21:23:42.233Z,98341.28
2022-12-29T21:26:15.376Z,98344.06
2022-12-29T21:28:43.515Z,98351.75
2022-12-29T21:31:13.864Z,98349.31
2022-12-29T21:33:40.458Z,98351.06
2022-12-29T21:36:08.388Z,98356.31
2022-12-29T21:38:35.934Z,98354.03
2022-12-29T21:41:10.878Z,98359.50
2022-12-29T21:43:38.448Z,98361.25
2022-12-29T21:46:06.211Z,98367.28
2022-12-29T21:48:33.580Z,98362.97
2022-12-29T21:51:31.788Z,98358.75
2022-12-29T21:54:20.752Z,98358.16
2022-12-29T21:56:48.943Z,98356.75
2022-12-29T21:59:35.165Z,98360.47
2022-12-29T22:02:22.887Z,98368.50
2022-12-29T22:05:08.392Z,98372.16
2022-12-29T22:07:53.585Z,98374.19
2022-12-29T22:10:38.863Z,98374.41
2022-12-29T22:13:05.484Z,98376.38
2022-12-29T22:15:40.245Z,98395.78
2022-12-29T22:18:06.978Z,98388.13
2022-12-29T22:20:35.964Z,98397.16
2022-12-29T22:23:02.876Z,98401.41
2022-12-29T22:25:29.624Z,98404.09
2022-12-29T22:27:59.440Z,98403.31
2022-12-29T22:30:28.238Z,98414.94
2022-12-29T22:32:54.924Z,98420.31
2022-12-29T22:35:21.449Z,98414.25
2022-12-29T22:37:48.032Z,98415.41
2022-12-29T22:40:14.558Z,98411.00
2022-12-29T22:42:41.135Z,98416.38
2022-12-29T22:45:08.432Z,98414.84
2022-12-29T22:47:35.036Z,98420.25
2022-12-29T22:50:01.817Z,98424.69
2022-12-29T22:52:28.558Z,98425.75
2022-12-29T22:54:55.090Z,98432.06
2022-12-29T22:57:21.706Z,98438.13
2022-12-29T22:59:48.326Z,98427.75
2022-12-29T23:02:15.072Z,98429.66
2022-12-29T23:07:29.026Z,98428.22
2022-12-29T23:09:55.581Z,98433.88
2022-12-29T23:12:22.190Z,98432.31
2022-12-29T23:14:48.758Z,98434.28
2022-12-29T23:17:15.353Z,98443.34
2022-12-29T23:19:42.000Z,98434.03
2022-12-29T23:22:08.572Z,98438.69
2022-12-29T23:24:35.129Z,98437.84
2022-12-29T23:27:01.662Z,98445.84
2022-12-29T23:29:31.138Z,98445.03
2022-12-29T23:31:57.691Z,98445.13
2022-12-29T23:34:24.240Z,98445.31
2022-12-29T23:36:51.144Z,98449.91
2022-12-29T23:39:20.138Z,98440.31
2022-12-29T23:41:47.324Z,98442.84
2022-12-29T23:44:13.925Z,98452.53
2022-12-29T23:46:41.098Z,98455.47
2022-12-29T23:49:09.287Z,98453.66
2022-12-29T23:51:36.107Z,98465.16
2022-12-29T23:54:03.006Z,98459.25
2022-12-29T23:56:29.731Z,98456.59
2022-12-29T23:58:56.360Z,98449.75
